Time;durP1;ratioP1;P1;durP2;ratioP2;P2;SDS_P1;SDS_P2;PMS_P1;PMS_P2;Temp;Humidity;BMP_temperature;BMP_pressure;BME280_temperature;BME280_humidity;BME280_pressure;Samples;Min_cycle;Max_cycle;Signal;HPM_P1;HPM_P2
2022/10/30 00:01:08;;;;;;;17.50;9.00;;;;;;;-142.57;100.00;61215.63;4931824;29;20101;-86
2022/10/30 00:03:34;;;;;;;17.60;8.68;;;;;;;-142.57;100.00;61215.63;4938375;23;20040;-84
2022/10/30 00:06:03;;;;;;;23.20;8.77;;;;;;;-142.57;100.00;61215.63;4927750;29;20047;-86
2022/10/30 00:08:28;;;;;;;17.60;8.00;;;;;;;-142.57;100.00;61215.63;4925330;29;20040;-87
2022/10/30 00:11:28;;;;;;;16.58;7.70;;;;;;;-142.57;100.00;61215.63;4932679;29;20445;-86
2022/10/30 00:13:54;;;;;;;16.63;7.90;;;;;;;-142.57;100.00;61215.63;4934912;29;20099;-84
2022/10/30 00:16:19;;;;;;;15.27;6.93;;;;;;;-142.57;100.00;61215.63;4930442;29;20039;-86
2022/10/30 00:18:45;;;;;;;19.30;8.27;;;;;;;-142.57;100.00;61215.63;4928945;29;20048;-89
2022/10/30 00:21:13;;;;;;;15.82;7.22;;;;;;;-142.57;100.00;61215.63;4920844;29;20119;-87
2022/10/30 00:23:44;;;;;;;18.20;7.05;;;;;;;-142.57;100.00;61215.63;4920388;29;20447;-90
2022/10/30 00:26:10;;;;;;;18.73;7.25;;;;;;;-142.57;100.00;61215.63;4920282;29;20040;-89
2022/10/30 00:28:35;;;;;;;14.00;7.53;;;;;;;-142.57;100.00;61215.63;4919641;29;20432;-87
2022/10/30 00:31:02;;;;;;;14.20;7.63;;;;;;;-142.57;100.00;61215.63;4920181;29;20036;-90
2022/10/30 00:33:29;;;;;;;20.60;7.50;;;;;;;-142.57;100.00;61215.63;4919991;29;20091;-86
2022/10/30 00:35:55;;;;;;;12.05;6.93;;;;;;;-142.57;100.00;61215.63;4919262;29;20028;-88
2022/10/30 00:38:22;;;;;;;14.45;7.28;;;;;;;-142.57;100.00;61215.63;4920135;29;20032;-86
2022/10/30 00:40:48;;;;;;;14.82;7.50;;;;;;;-142.57;100.00;61215.63;4902942;29;20433;-89
2022/10/30 00:43:34;;;;;;;19.35;7.13;;;;;;;-142.57;100.00;61215.63;4919213;29;20565;-85
2022/10/30 00:46:17;;;;;;;14.70;7.28;;;;;;;-142.57;100.00;61215.63;4919287;29;20085;-88
2022/10/30 00:48:47;;;;;;;17.00;7.53;;;;;;;-142.57;100.00;61215.63;4919287;29;20079;-88
2022/10/30 00:51:13;;;;;;;17.15;6.93;;;;;;;-142.57;100.00;61215.63;4919377;29;20032;-90
2022/10/30 00:53:41;;;;;;;16.88;7.40;;;;;;;-142.57;100.00;61215.63;4917691;29;20027;-87
2022/10/30 00:56:09;;;;;;;17.27;7.32;;;;;;;-142.57;100.00;61215.63;4918365;29;20043;-87
2022/10/30 00:58:39;;;;;;;16.83;7.22;;;;;;;-142.57;100.00;61215.63;4902175;29;20033;-87
2022/10/30 01:01:10;;;;;;;13.98;7.45;;;;;;;-142.57;100.00;61215.63;4918945;29;20486;-86
2022/10/30 01:03:38;;;;;;;17.75;7.53;;;;;;;-142.57;100.00;61215.63;4919001;29;20048;-88
2022/10/30 01:06:07;;;;;;;20.88;7.22;;;;;;;-142.57;100.00;61215.63;4918314;29;20036;-86
2022/10/30 01:08:34;;;;;;;18.45;8.23;;;;;;;-142.57;100.00;61215.63;4916719;29;20047;-87
2022/10/30 01:11:02;;;;;;;16.17;7.20;;;;;;;-142.57;100.00;61215.63;4916355;29;20390;-88
2022/10/30 01:13:29;;;;;;;17.08;7.53;;;;;;;-142.57;100.00;61215.63;4917069;29;20094;-88
2022/10/30 01:16:13;;;;;;;14.30;7.60;;;;;;;-142.57;100.00;61215.63;4916019;29;20036;-87
2022/10/30 01:18:41;;;;;;;20.70;7.63;;;;;;;-142.57;100.00;61215.63;4915833;29;20498;-88
2022/10/30 01:21:10;;;;;;;17.65;8.07;;;;;;;-142.57;100.00;61215.63;4917221;29;20044;-85
2022/10/30 01:24:02;;;;;;;15.30;7.70;;;;;;;-142.57;100.00;61215.63;4917504;29;20044;-89
2022/10/30 01:26:58;;;;;;;22.83;8.68;;;;;;;-142.57;100.00;61215.63;4892049;29;20054;-87
2022/10/30 01:29:36;;;;;;;17.10;7.35;;;;;;;-142.57;100.00;61215.63;4938756;29;20107;-85
2022/10/30 01:32:07;;;;;;;17.02;7.43;;;;;;;-142.57;100.00;61215.63;4940829;29;20052;-86
2022/10/30 01:35:01;;;;;;;11.77;5.63;;;;;;;-142.57;100.00;61215.63;4940486;29;20028;-85
2022/10/30 01:37:46;;;;;;;25.20;8.73;;;;;;;-142.57;100.00;61215.63;4916958;29;20039;-89
2022/10/30 01:40:15;;;;;;;15.05;8.43;;;;;;;-142.57;100.00;61215.63;4916992;29;20044;-87
2022/10/30 01:42:52;;;;;;;24.88;7.35;;;;;;;-142.57;100.00;61215.63;4916077;29;20039;-89
2022/10/30 01:45:41;;;;;;;18.30;7.53;;;;;;;-142.57;100.00;61215.63;4916995;29;20050;-89
2022/10/30 01:48:13;;;;;;;25.17;7.63;;;;;;;-142.57;100.00;61215.63;4918618;29;20401;-85
2022/10/30 01:51:02;;;;;;;18.05;7.57;;;;;;;-142.57;100.00;61215.63;4916506;29;20036;-88
2022/10/30 01:53:57;;;;;;;15.75;6.40;;;;;;;-142.57;100.00;61215.63;4916797;29;20131;-88
2022/10/30 01:57:20;;;;;;;15.82;6.70;;;;;;;-142.57;100.00;61215.63;4916709;29;20036;-88
2022/10/30 01:59:59;;;;;;;17.17;6.63;;;;;;;-142.57;100.00;61215.63;4862408;29;20040;-88
2022/10/30 02:02:28;;;;;;;13.95;6.78;;;;;;;-142.57;100.00;61215.63;4861785;29;20043;-85
2022/10/30 02:07:44;;;;;;;11.95;5.57;;;;;;;-142.57;100.00;61215.63;5326592;23;20044;-85
2022/10/30 02:10:59;;;;;;;20.02;6.13;;;;;;;-142.57;100.00;61215.63;4939255;29;20067;-87
2022/10/30 02:14:10;;;;;;;13.70;5.53;;;;;;;-142.57;100.00;61215.63;5048214;23;20067;-87
2022/10/30 02:16:55;;;;;;;12.35;5.72;;;;;;;-142.57;100.00;61215.63;4936387;29;20119;-86
2022/10/30 02:19:53;;;;;;;14.40;6.45;;;;;;;-142.57;100.00;61215.63;4986836;23;20060;-85
2022/10/30 02:22:20;;;;;;;17.10;5.85;;;;;;;-142.57;100.00;61215.63;4926811;29;20036;-90
2022/10/30 02:24:47;;;;;;;18.10;6.88;;;;;;;-142.57;100.00;61215.63;4925536;29;20070;-87
2022/10/30 02:27:12;;;;;;;16.58;6.57;;;;;;;-142.57;100.00;61215.63;5028247;23;20048;-90
2022/10/30 02:29:41;;;;;;;15.45;6.00;;;;;;;-142.57;100.00;61215.63;4922342;29;20071;-89
2022/10/30 02:32:10;;;;;;;19.10;6.63;;;;;;;-142.57;100.00;61215.63;4919226;29;20569;-88
2022/10/30 02:34:35;;;;;;;12.30;6.28;;;;;;;-142.57;100.00;61215.63;4919572;29;20047;-87
2022/10/30 02:37:01;;;;;;;16.85;7.20;;;;;;;-142.57;100.00;61215.63;4917022;29;20115;-89
2022/10/30 02:39:27;;;;;;;16.05;6.85;;;;;;;-142.57;100.00;61215.63;4915098;29;20040;-90
2022/10/30 02:41:52;;;;;;;19.92;7.45;;;;;;;-142.57;100.00;61215.63;4915182;29;20035;-89
2022/10/30 02:44:18;;;;;;;14.85;6.57;;;;;;;-142.57;100.00;61215.63;4915351;29;20032;-88
2022/10/30 02:46:46;;;;;;;17.85;6.72;;;;;;;-142.57;100.00;61215.63;4915636;29;20133;-86
2022/10/30 02:49:11;;;;;;;15.02;6.78;;;;;;;-142.57;100.00;61215.63;4909500;29;20470;-86
2022/10/30 02:51:37;;;;;;;14.23;6.80;;;;;;;-142.57;100.00;61215.63;4905512;29;20064;-88
2022/10/30 02:54:02;;;;;;;25.45;7.60;;;;;;;-142.57;100.00;61215.63;4933489;29;20027;-86
2022/10/30 02:56:29;;;;;;;10.82;7.05;;;;;;;-142.57;100.00;61215.63;4909880;29;20040;-87
2022/10/30 02:58:55;;;;;;;20.27;6.88;;;;;;;-142.57;100.00;61215.63;4903333;29;20141;-85
2022/10/30 03:01:21;;;;;;;12.55;6.57;;;;;;;-142.57;100.00;61215.63;4907105;29;20072;-87
2022/10/30 03:03:50;;;;;;;14.65;7.18;;;;;;;-142.57;100.00;61215.63;4905107;29;20043;-86
2022/10/30 03:06:16;;;;;;;22.23;7.63;;;;;;;-142.57;100.00;61215.63;4904489;29;20028;-88
2022/10/30 03:08:42;;;;;;;16.45;6.25;;;;;;;-142.57;100.00;61215.63;4905472;29;20127;-87
2022/10/30 03:11:14;;;;;;;13.57;6.32;;;;;;;-142.57;100.00;61215.63;4906829;29;20037;-85
2022/10/30 03:13:40;;;;;;;12.25;6.43;;;;;;;-142.57;100.00;61215.63;4910845;29;20496;-85
2022/10/30 03:16:20;;;;;;;15.77;7.43;;;;;;;-142.57;100.00;61215.63;4909680;29;20035;-84
2022/10/30 03:18:46;;;;;;;15.18;6.32;;;;;;;-142.57;100.00;61215.63;4903744;29;20045;-86
2022/10/30 03:21:14;;;;;;;13.45;6.10;;;;;;;-142.57;100.00;61215.63;4911040;29;20068;-88
2022/10/30 03:23:40;;;;;;;11.13;5.85;;;;;;;-142.57;100.00;61215.63;4919284;29;20043;-85
2022/10/30 03:26:07;;;;;;;14.50;5.35;;;;;;;-142.57;100.00;61215.63;4912367;29;20032;-87
2022/10/30 03:28:39;;;;;;;9.75;4.50;;;;;;;-142.57;100.00;61215.63;4884683;29;20104;-86
2022/10/30 03:31:07;;;;;;;10.40;4.70;;;;;;;-142.57;100.00;61215.63;4910122;29;20457;-86
2022/10/30 03:33:34;;;;;;;10.02;4.55;;;;;;;-142.57;100.00;61215.63;4904948;29;20123;-86
2022/10/30 03:36:00;;;;;;;11.73;5.22;;;;;;;-142.57;100.00;61215.63;4910356;29;20123;-84
2022/10/30 03:38:26;;;;;;;14.77;5.00;;;;;;;-142.57;100.00;61215.63;4903992;29;20107;-85
2022/10/30 03:40:52;;;;;;;14.18;5.55;;;;;;;-142.57;100.00;61215.63;4909788;29;20125;-87
2022/10/30 03:43:18;;;;;;;13.48;5.40;;;;;;;-142.57;100.00;61215.63;4909556;29;20100;-88
2022/10/30 03:45:49;;;;;;;10.95;5.18;;;;;;;-142.57;100.00;61215.63;4907934;29;20033;-86
2022/10/30 03:48:17;;;;;;;10.40;5.00;;;;;;;-142.57;100.00;61215.63;4902410;29;20044;-85
2022/10/30 03:50:44;;;;;;;15.07;6.03;;;;;;;-142.57;100.00;61215.63;4904160;29;20029;-86
2022/10/30 03:53:11;;;;;;;13.65;6.22;;;;;;;-142.57;100.00;61215.63;4904755;29;20036;-86
2022/10/30 03:55:37;;;;;;;19.05;6.28;;;;;;;-142.57;100.00;61215.63;4908755;29;20378;-89
2022/10/30 03:58:03;;;;;;;20.55;6.75;;;;;;;-142.57;100.00;61215.63;4915183;29;20068;-86
2022/10/30 04:00:29;;;;;;;15.77;6.22;;;;;;;-142.57;100.00;61215.63;4909670;29;20039;-89
2022/10/30 04:02:57;;;;;;;13.02;6.72;;;;;;;-142.57;100.00;61215.63;4905453;29;20040;-88
2022/10/30 04:05:25;;;;;;;15.35;6.15;;;;;;;-142.57;100.00;61215.63;4906113;29;20024;-86
2022/10/30 04:07:58;;;;;;;14.20;6.78;;;;;;;-142.57;100.00;61215.63;4907450;29;20048;-85
2022/10/30 04:10:25;;;;;;;13.10;6.88;;;;;;;-142.57;100.00;61215.63;4903644;29;20032;-87
2022/10/30 04:12:58;;;;;;;13.82;7.15;;;;;;;-142.57;100.00;61215.63;4922662;29;20032;-84
2022/10/30 04:15:23;;;;;;;20.13;6.93;;;;;;;-142.57;100.00;61215.63;4931313;29;20037;-86
2022/10/30 04:17:50;;;;;;;17.45;7.38;;;;;;;-142.57;100.00;61215.63;4935084;29;20056;-86
2022/10/30 04:20:17;;;;;;;16.58;6.35;;;;;;;-142.57;100.00;61215.63;4922889;29;20401;-85
2022/10/30 04:22:43;;;;;;;14.98;7.80;;;;;;;-142.57;100.00;61215.63;4907561;29;20542;-86
2022/10/30 04:25:11;;;;;;;21.08;7.47;;;;;;;-142.57;100.00;61215.63;4904400;29;20072;-87
2022/10/30 04:27:43;;;;;;;21.05;7.85;;;;;;;-142.57;100.00;61215.63;4895439;29;20047;-85
2022/10/30 04:30:11;;;;;;;15.38;7.28;;;;;;;-142.57;100.00;61215.63;4906647;29;20067;-86
2022/10/30 04:32:54;;;;;;;14.93;7.60;;;;;;;-142.57;100.00;61215.63;4912183;29;20047;-87
2022/10/30 04:35:23;;;;;;;12.57;6.78;;;;;;;-142.57;100.00;61215.63;4902874;29;20040;-87
2022/10/30 04:37:59;;;;;;;13.52;7.35;;;;;;;-142.57;100.00;61215.63;4904617;29;20029;-87
2022/10/30 04:40:30;;;;;;;14.43;7.88;;;;;;;-142.57;100.00;61215.63;4902044;29;20072;-86
2022/10/30 04:43:01;;;;;;;13.75;7.28;;;;;;;-142.57;100.00;61215.63;4898768;29;20032;-85
2022/10/30 04:45:27;;;;;;;22.83;7.25;;;;;;;-142.57;100.00;61215.63;4903006;29;20028;-86
2022/10/30 04:48:00;;;;;;;13.82;7.10;;;;;;;-142.57;100.00;61215.63;4908755;29;20036;-84
2022/10/30 04:50:26;;;;;;;13.45;7.18;;;;;;;-142.57;100.00;61215.63;4909046;29;20041;-86
2022/10/30 04:53:04;;;;;;;26.40;7.97;;;;;;;-142.57;100.00;61215.63;4900506;29;20036;-85
2022/10/30 04:55:30;;;;;;;18.13;7.28;;;;;;;-142.57;100.00;61215.63;4915432;29;20422;-85
2022/10/30 04:57:57;;;;;;;19.00;7.75;;;;;;;-142.57;100.00;61215.63;4902544;29;20033;-86
2022/10/30 05:00:23;;;;;;;13.88;7.47;;;;;;;-142.57;100.00;61215.63;4903835;29;20116;-85
2022/10/30 05:02:49;;;;;;;14.45;7.40;;;;;;;-142.57;100.00;61215.63;4907636;29;20036;-87
2022/10/30 05:05:14;;;;;;;14.07;7.22;;;;;;;-142.57;100.00;61215.63;4898154;29;20033;-86
2022/10/30 05:07:40;;;;;;;19.38;7.47;;;;;;;-142.57;100.00;61215.63;4902083;29;20157;-84
2022/10/30 05:10:10;;;;;;;14.27;6.65;;;;;;;-142.57;100.00;61215.63;4908502;29;20025;-85
2022/10/30 05:12:36;;;;;;;22.80;7.70;;;;;;;-142.57;100.00;61215.63;4895064;29;20044;-85
2022/10/30 05:15:02;;;;;;;12.95;6.75;;;;;;;-142.57;100.00;61215.63;4907855;29;20059;-88
2022/10/30 05:17:27;;;;;;;16.58;7.38;;;;;;;-142.57;100.00;61215.63;4915526;29;20123;-88
2022/10/30 05:19:55;;;;;;;22.27;7.00;;;;;;;-142.57;100.00;61215.63;4908709;29;20108;-85
2022/10/30 05:22:20;;;;;;;18.20;7.25;;;;;;;-142.57;100.00;61215.63;4903443;29;20040;-84
2022/10/30 05:24:46;;;;;;;20.73;7.10;;;;;;;-142.57;100.00;61215.63;4903063;29;20139;-88
2022/10/30 05:27:12;;;;;;;14.63;6.97;;;;;;;-142.57;100.00;61215.63;4901557;29;20040;-86
2022/10/30 05:29:39;;;;;;;16.60;6.85;;;;;;;-142.57;100.00;61215.63;4909260;29;20119;-87
2022/10/30 05:32:04;;;;;;;16.13;7.15;;;;;;;-142.57;100.00;61215.63;4907731;29;20072;-85
2022/10/30 05:34:56;;;;;;;14.38;6.35;;;;;;;-142.57;100.00;61215.63;4912849;29;20043;-88
2022/10/30 05:37:22;;;;;;;14.98;6.50;;;;;;;-142.57;100.00;61215.63;4910375;29;20041;-86
2022/10/30 05:39:47;;;;;;;15.68;6.70;;;;;;;-142.57;100.00;61215.63;4902167;29;20414;-86
2022/10/30 05:42:23;;;;;;;11.85;5.93;;;;;;;-142.57;100.00;61215.63;4902603;29;20036;-84
2022/10/30 05:44:55;;;;;;;21.25;7.28;;;;;;;-142.57;100.00;61215.63;4905495;29;20041;-85
2022/10/30 05:47:21;;;;;;;19.05;6.93;;;;;;;-142.57;100.00;61215.63;4909066;29;20065;-86
2022/10/30 05:49:51;;;;;;;18.60;7.63;;;;;;;-142.57;100.00;61215.63;4906408;29;20250;-86
2022/10/30 05:52:20;;;;;;;16.55;7.07;;;;;;;-142.57;100.00;61215.63;4903119;29;20040;-85
2022/10/30 05:54:47;;;;;;;17.73;7.88;;;;;;;-142.57;100.00;61215.63;4907139;29;20700;-86
2022/10/30 05:57:18;;;;;;;17.50;6.82;;;;;;;-142.57;100.00;61215.63;4903362;29;20136;-87
2022/10/30 05:59:44;;;;;;;18.90;7.63;;;;;;;-142.57;100.00;61215.63;4901839;29;20464;-85
2022/10/30 06:02:09;;;;;;;17.90;7.18;;;;;;;-142.57;100.00;61215.63;4904052;29;20036;-86
2022/10/30 06:04:35;;;;;;;14.57;7.45;;;;;;;-142.57;100.00;61215.63;4905317;29;20401;-86
2022/10/30 06:07:03;;;;;;;15.38;7.13;;;;;;;-142.57;100.00;61215.63;4902847;29;20083;-87
2022/10/30 06:09:29;;;;;;;23.35;7.15;;;;;;;-142.57;100.00;61215.63;4907566;29;20043;-85
2022/10/30 06:12:15;;;;;;;24.35;7.70;;;;;;;-142.57;100.00;61215.63;4903641;29;20045;-88
2022/10/30 06:15:09;;;;;;;17.17;6.88;;;;;;;-142.57;100.00;61215.63;4884112;29;20439;-87
2022/10/30 06:17:36;;;;;;;22.13;6.70;;;;;;;-142.57;100.00;61215.63;4901463;29;20044;-87
2022/10/30 06:20:14;;;;;;;18.63;6.90;;;;;;;-142.57;100.00;61215.63;4909098;29;20040;-86
2022/10/30 06:23:00;;;;;;;19.55;6.90;;;;;;;-142.57;100.00;61215.63;4903081;29;20067;-88
2022/10/30 06:25:34;;;;;;;13.30;6.28;;;;;;;-142.57;100.00;61215.63;4908547;29;20033;-87
2022/10/30 06:28:12;;;;;;;15.20;7.00;;;;;;;-142.57;100.00;61215.63;4902315;29;20096;-86
2022/10/30 06:30:39;;;;;;;10.98;6.25;;;;;;;-142.57;100.00;61215.63;4908046;29;20456;-85
2022/10/30 06:33:06;;;;;;;21.13;6.35;;;;;;;-142.57;100.00;61215.63;4890154;29;20060;-85
2022/10/30 06:35:33;;;;;;;17.08;6.45;;;;;;;-142.57;100.00;61215.63;4893832;29;20087;-87
2022/10/30 06:38:01;;;;;;;18.25;6.50;;;;;;;-142.57;100.00;61215.63;4904074;29;20113;-87
2022/10/30 06:40:31;;;;;;;16.85;5.57;;;;;;;-142.57;100.00;61215.63;4904894;29;20031;-87
2022/10/30 06:43:09;;;;;;;18.85;6.13;;;;;;;-142.57;100.00;61215.63;4909354;29;20035;-87
2022/10/30 06:45:39;;;;;;;18.88;5.95;;;;;;;-142.57;100.00;61215.63;4908070;29;20092;-85
2022/10/30 06:48:05;;;;;;;11.13;5.93;;;;;;;-142.57;100.00;61215.63;4913200;29;20043;-87
2022/10/30 06:50:35;;;;;;;17.63;4.75;;;;;;;-142.57;100.00;61215.63;4912473;29;20119;-87
2022/10/30 06:53:01;;;;;;;20.02;5.72;;;;;;;-142.57;100.00;61215.63;4917399;29;20064;-88
2022/10/30 06:55:26;;;;;;;11.70;5.15;;;;;;;-142.57;100.00;61215.63;4931007;29;20099;-87
2022/10/30 06:58:18;;;;;;;11.80;5.43;;;;;;;-142.57;100.00;61215.63;4927094;29;20020;-87
2022/10/30 07:01:02;;;;;;;11.10;5.20;;;;;;;-142.57;100.00;61215.63;4924020;29;20098;-88
2022/10/30 07:03:39;;;;;;;11.60;5.28;;;;;;;-142.57;100.00;61215.63;4914709;29;20070;-86
2022/10/30 07:06:05;;;;;;;15.68;5.18;;;;;;;-142.57;100.00;61215.63;4917165;29;20060;-86
2022/10/30 07:08:32;;;;;;;17.67;8.77;;;;;;;-142.57;100.00;61215.63;4912619;29;20040;-86
2022/10/30 07:10:58;;;;;;;22.65;9.55;;;;;;;-142.57;100.00;61215.63;4910985;29;20059;-86
2022/10/30 07:13:35;;;;;;;23.52;8.20;;;;;;;-142.57;100.00;61215.63;4910424;29;20067;-88
2022/10/30 07:16:15;;;;;;;16.60;7.05;;;;;;;-142.57;100.00;61215.63;4920609;29;20099;-88
2022/10/30 07:18:43;;;;;;;13.25;6.82;;;;;;;-142.57;100.00;61215.63;4912054;29;20060;-87
2022/10/30 07:21:09;;;;;;;17.85;6.53;;;;;;;-142.57;100.00;61215.63;4911889;29;20101;-85
2022/10/30 07:23:35;;;;;;;15.93;6.55;;;;;;;-142.57;100.00;61215.63;4913864;29;20056;-86
2022/10/30 07:26:13;;;;;;;11.20;6.38;;;;;;;-142.57;100.00;61215.63;4912659;29;20028;-87
2022/10/30 07:28:44;;;;;;;24.95;6.72;;;;;;;-142.57;100.00;61215.63;4896732;29;20044;-87
2022/10/30 07:31:37;;;;;;;13.98;5.97;;;;;;;-142.57;100.00;61215.63;4898512;29;20036;-88
2022/10/30 07:34:21;;;;;;;14.38;6.32;;;;;;;-142.57;100.00;61215.63;4909905;29;20095;-85
2022/10/30 07:36:56;;;;;;;15.63;7.03;;;;;;;-142.57;100.00;61215.63;4906134;29;20052;-86
2022/10/30 07:39:33;;;;;;;22.10;7.30;;;;;;;-142.57;100.00;61215.63;4913287;29;20044;-84
2022/10/30 07:42:20;;;;;;;15.75;6.10;;;;;;;-142.57;100.00;61215.63;4909165;29;20036;-84
2022/10/30 07:45:06;;;;;;;14.20;6.60;;;;;;;-142.57;100.00;61215.63;4909693;29;20032;-84
2022/10/30 07:47:52;;;;;;;16.70;6.38;;;;;;;-142.57;100.00;61215.63;4909302;29;20041;-85
2022/10/30 07:50:26;;;;;;;22.58;6.90;;;;;;;-142.57;100.00;61215.63;4913018;29;20036;-83
2022/10/30 07:52:52;;;;;;;13.25;5.88;;;;;;;-142.57;100.00;61215.63;4911943;29;20046;-85
2022/10/30 07:55:23;;;;;;;16.75;5.72;;;;;;;-142.57;100.00;61215.63;4923560;29;20012;-85
2022/10/30 07:57:49;;;;;;;13.95;5.88;;;;;;;-142.57;100.00;61215.63;4918808;29;20051;-86
2022/10/30 08:00:33;;;;;;;13.07;6.20;;;;;;;-142.57;100.00;61215.63;4922739;29;20457;-85
2022/10/30 08:03:11;;;;;;;15.57;5.90;;;;;;;-142.57;100.00;61215.63;4909992;29;20123;-85
2022/10/30 08:05:43;;;;;;;17.45;6.28;;;;;;;-142.57;100.00;61215.63;4913773;29;20040;-86
2022/10/30 08:08:21;;;;;;;16.48;5.97;;;;;;;-142.57;100.00;61215.63;4904760;29;20033;-85
2022/10/30 08:10:54;;;;;;;16.70;5.63;;;;;;;-142.57;100.00;61215.63;4911147;29;20123;-87
2022/10/30 08:13:23;;;;;;;13.10;5.90;;;;;;;-142.57;100.00;61215.63;4910715;29;20478;-85
2022/10/30 08:15:49;;;;;;;16.77;6.55;;;;;;;-142.57;100.00;61215.63;4905124;29;20044;-86
2022/10/30 08:18:14;;;;;;;11.65;6.20;;;;;;;-142.57;100.00;61215.63;4905241;29;20028;-86
2022/10/30 08:20:41;;;;;;;17.73;6.28;;;;;;;-142.57;100.00;61215.63;4909412;29;20072;-87
2022/10/30 08:23:07;;;;;;;16.98;6.13;;;;;;;-142.57;100.00;61215.63;4906080;29;20028;-87
2022/10/30 08:25:33;;;;;;;20.65;6.35;;;;;;;-142.57;100.00;61215.63;4908962;29;20522;-85
2022/10/30 08:28:01;;;;;;;13.23;5.57;;;;;;;-142.57;100.00;61215.63;4913072;29;20037;-86
2022/10/30 08:30:33;;;;;;;13.35;6.03;;;;;;;-142.57;100.00;61215.63;4910846;29;20384;-86
2022/10/30 08:33:01;;;;;;;18.30;6.05;;;;;;;-142.57;100.00;61215.63;4906803;29;20037;-87
2022/10/30 08:36:00;;;;;;;15.13;6.07;;;;;;;-142.57;100.00;61215.63;4907977;29;20419;-87
2022/10/30 08:38:27;;;;;;;16.80;6.45;;;;;;;-142.57;100.00;61215.63;4903067;29;20056;-86
2022/10/30 08:41:13;;;;;;;15.88;6.68;;;;;;;-142.57;100.00;61215.63;4901524;29;20611;-86
2022/10/30 08:43:47;;;;;;;15.32;6.78;;;;;;;-142.57;100.00;61215.63;4903305;29;20124;-86
2022/10/30 08:46:13;;;;;;;13.98;6.72;;;;;;;-142.57;100.00;61215.63;4896574;29;20100;-83
2022/10/30 08:48:39;;;;;;;20.63;6.80;;;;;;;-142.57;100.00;61215.63;4909875;29;20478;-87
2022/10/30 08:51:06;;;;;;;16.42;6.63;;;;;;;-142.57;100.00;61215.63;4907402;29;20068;-86
2022/10/30 08:53:35;;;;;;;18.13;7.43;;;;;;;-142.57;100.00;61215.63;4908446;29;20041;-87
2022/10/30 08:56:05;;;;;;;23.13;7.53;;;;;;;-142.57;100.00;61215.63;4913100;29;20036;-89
2022/10/30 08:58:43;;;;;;;16.70;7.85;;;;;;;-142.57;100.00;61215.63;4891591;29;20465;-86
2022/10/30 09:01:09;;;;;;;19.13;8.00;;;;;;;-142.57;100.00;61215.63;4903448;29;20043;-90
2022/10/30 09:03:53;;;;;;;18.00;7.90;;;;;;;-142.57;100.00;61215.63;4907841;29;20099;-90
2022/10/30 09:06:39;;;;;;;21.67;8.18;;;;;;;-142.57;100.00;61215.63;4900664;29;20469;-87
2022/10/30 09:09:23;;;;;;;21.25;7.10;;;;;;;-142.57;100.00;61215.63;4904106;29;20127;-87
2022/10/30 09:11:52;;;;;;;13.90;6.95;;;;;;;-142.57;100.00;61215.63;4902653;29;20060;-87
2022/10/30 09:14:17;;;;;;;21.92;7.25;;;;;;;-142.57;100.00;61215.63;4913363;29;20123;-88
2022/10/30 09:16:43;;;;;;;11.73;6.95;;;;;;;-142.57;100.00;61215.63;4904838;29;21774;-88
2022/10/30 09:19:09;;;;;;;15.10;6.63;;;;;;;-142.57;100.00;61215.63;4908368;29;20040;-88
2022/10/30 09:21:34;;;;;;;18.00;6.43;;;;;;;-142.57;100.00;61215.63;4895110;29;20118;-88
2022/10/30 09:24:00;;;;;;;14.55;6.72;;;;;;;-142.57;100.00;61215.63;4906468;29;20048;-87
2022/10/30 09:26:35;;;;;;;15.32;6.72;;;;;;;-142.57;100.00;61215.63;4916762;29;20048;-87
2022/10/30 09:29:09;;;;;;;22.58;6.32;;;;;;;-142.57;100.00;61215.63;4906312;29;20047;-89
2022/10/30 09:31:53;;;;;;;13.73;7.20;;;;;;;-142.57;100.00;61215.63;4907989;29;20035;-87
2022/10/30 09:34:20;;;;;;;18.00;7.60;;;;;;;-142.57;100.00;61215.63;4908895;29;20391;-89
2022/10/30 09:36:56;;;;;;;13.93;6.65;;;;;;;-142.57;100.00;61215.63;4905699;29;20075;-86
2022/10/30 09:39:24;;;;;;;17.45;7.07;;;;;;;-142.57;100.00;61215.63;4911739;29;20111;-86
2022/10/30 09:42:09;;;;;;;24.42;7.55;;;;;;;-142.57;100.00;61215.63;4907878;29;20036;-87
2022/10/30 09:44:55;;;;;;;18.70;7.05;;;;;;;-142.57;100.00;61215.63;4904457;29;20043;-85
2022/10/30 09:47:39;;;;;;;18.38;7.60;;;;;;;-142.57;100.00;61215.63;4923544;29;20035;-90
2022/10/30 09:50:10;;;;;;;17.77;8.27;;;;;;;-142.57;100.00;61215.63;4908687;29;20047;-88
2022/10/30 16:46:52;;;;;;;18.42;5.50;;;;;;;-142.57;100.00;61215.63;5605374;23;20035;-88
2022/10/30 21:59:15;;;;;;;21.40;9.88;;;;;;;-142.57;100.00;61215.63;3058835;23;20055;-88
2022/10/30 23:35:05;;;;;;;18.48;9.93;;;;;;;-142.57;100.00;61215.63;5250821;23;20040;-82
2022/10/30 23:49:53;;;;;;;23.40;9.18;;;;;;;-142.57;100.00;61215.63;4359760;23;20064;-86
2022/10/30 23:52:44;;;;;;;22.90;9.18;;;;;;;-142.57;100.00;61215.63;4931526;29;20075;-84
